sensor_id;sensor_type;location;lat;lon;timestamp;pressure;altitude;pressure_sealevel;temperature;humidity
49515;BME280;35415;47.870;16.058;2024-03-02T00:01:19;96326.19;;;5.33;100.00
49515;BME280;35415;47.870;16.058;2024-03-02T00:03:49;96328.03;;;5.32;100.00
49515;BME280;35415;47.870;16.058;2024-03-02T00:06:20;96429.31;;;5.96;100.00
49515;BME280;35415;47.870;16.058;2024-03-02T00:08:50;96508.88;;;6.42;100.00
49515;BME280;35415;47.870;16.058;2024-03-02T00:11:20;96438.41;;;5.95;100.00
49515;BME280;35415;47.870;16.058;2024-03-02T00:13:53;96425.31;;;5.94;100.00
49515;BME280;35415;47.870;16.058;2024-03-02T00:16:23;96449.38;;;6.04;100.00
49515;BME280;35415;47.870;16.058;2024-03-02T00:18:53;96494.69;;;6.36;100.00
49515;BME280;35415;47.870;16.058;2024-03-02T00:21:28;96362.84;;;5.53;100.00
49515;BME280;35415;47.870;16.058;2024-03-02T00:23:58;96337.66;;;5.33;100.00
49515;BME280;35415;47.870;16.058;2024-03-02T00:26:30;96410.75;;;5.74;100.00
49515;BME280;35415;47.870;16.058;2024-03-02T00:29:01;96420.09;;;5.77;100.00
49515;BME280;35415;47.870;16.058;2024-03-02T00:31:29;96505.63;;;6.34;100.00
49515;BME280;35415;47.870;16.058;2024-03-02T00:34:02;96494.38;;;6.27;100.00
49515;BME280;35415;47.870;16.058;2024-03-02T00:36:34;96368.13;;;5.42;100.00
49515;BME280;35415;47.870;16.058;2024-03-02T00:39:04;96360.13;;;5.42;100.00
49515;BME280;35415;47.870;16.058;2024-03-02T00:41:35;96499.19;;;6.30;100.00
49515;BME280;35415;47.870;16.058;2024-03-02T00:44:07;96437.59;;;5.95;100.00
49515;BME280;35415;47.870;16.058;2024-03-02T00:46:38;96349.13;;;5.34;100.00
49515;BME280;35415;47.870;16.058;2024-03-02T00:49:18;96434.00;;;5.84;100.00
49515;BME280;35415;47.870;16.058;2024-03-02T00:51:49;96387.91;;;5.52;100.00
49515;BME280;35415;47.870;16.058;2024-03-02T00:54:21;96388.94;;;5.46;100.00
49515;BME280;35415;47.870;16.058;2024-03-02T00:56:50;96503.75;;;6.30;100.00
49515;BME280;35415;47.870;16.058;2024-03-02T00:59:24;96370.72;;;5.32;100.00
49515;BME280;35415;47.870;16.058;2024-03-02T01:01:53;96447.19;;;5.91;100.00
49515;BME280;35415;47.870;16.058;2024-03-02T01:04:26;96474.25;;;6.10;100.00
49515;BME280;35415;47.870;16.058;2024-03-02T01:06:55;96500.53;;;6.28;100.00
49515;BME280;35415;47.870;16.058;2024-03-02T01:09:25;96517.81;;;6.20;100.00
49515;BME280;35415;47.870;16.058;2024-03-02T01:11:55;96424.63;;;5.71;100.00
49515;BME280;35415;47.870;16.058;2024-03-02T01:14:27;96394.84;;;5.53;100.00
49515;BME280;35415;47.870;16.058;2024-03-02T01:16:56;96433.19;;;5.79;100.00
49515;BME280;35415;47.870;16.058;2024-03-02T01:19:24;96503.38;;;6.16;100.00
49515;BME280;35415;47.870;16.058;2024-03-02T01:21:53;96336.88;;;5.01;100.00
49515;BME280;35415;47.870;16.058;2024-03-02T01:24:22;96481.72;;;6.08;100.00
49515;BME280;35415;47.870;16.058;2024-03-02T01:26:52;96436.91;;;5.72;100.00
49515;BME280;35415;47.870;16.058;2024-03-02T01:29:21;96314.47;;;4.97;100.00
49515;BME280;35415;47.870;16.058;2024-03-02T01:31:51;96486.00;;;6.09;100.00
49515;BME280;35415;47.870;16.058;2024-03-02T01:34:20;96345.78;;;5.17;100.00
49515;BME280;35415;47.870;16.058;2024-03-02T01:36:49;96336.63;;;5.02;100.00
49515;BME280;35415;47.870;16.058;2024-03-02T01:39:19;96310.44;;;4.89;100.00
49515;BME280;35415;47.870;16.058;2024-03-02T01:41:48;96434.97;;;5.68;100.00
49515;BME280;35415;47.870;16.058;2024-03-02T01:44:16;96327.56;;;5.03;100.00
49515;BME280;35415;47.870;16.058;2024-03-02T01:46:44;96349.25;;;5.17;100.00
49515;BME280;35415;47.870;16.058;2024-03-02T01:49:16;96371.94;;;5.20;100.00
49515;BME280;35415;47.870;16.058;2024-03-02T01:51:45;96355.66;;;5.16;100.00
49515;BME280;35415;47.870;16.058;2024-03-02T01:54:14;96418.56;;;5.49;100.00
49515;BME280;35415;47.870;16.058;2024-03-02T01:56:43;96409.75;;;5.43;100.00
49515;BME280;35415;47.870;16.058;2024-03-02T01:59:12;96326.41;;;4.89;100.00
49515;BME280;35415;47.870;16.058;2024-03-02T02:01:42;96326.09;;;4.86;100.00
49515;BME280;35415;47.870;16.058;2024-03-02T02:04:10;96326.09;;;4.86;100.00
49515;BME280;35415;47.870;16.058;2024-03-02T02:06:44;96470.53;;;5.79;100.00
49515;BME280;35415;47.870;16.058;2024-03-02T02:09:12;96319.09;;;4.74;100.00
49515;BME280;35415;47.870;16.058;2024-03-02T02:11:41;96402.75;;;5.37;100.00
49515;BME280;35415;47.870;16.058;2024-03-02T02:14:10;96322.59;;;4.80;100.00
49515;BME280;35415;47.870;16.058;2024-03-02T02:16:39;96284.59;;;4.58;100.00
49515;BME280;35415;47.870;16.058;2024-03-02T02:19:09;96279.44;;;4.51;100.00
49515;BME280;35415;47.870;16.058;2024-03-02T02:21:42;96465.19;;;5.73;100.00
49515;BME280;35415;47.870;16.058;2024-03-02T02:24:11;96347.50;;;4.96;100.00
49515;BME280;35415;47.870;16.058;2024-03-02T02:26:40;96327.47;;;4.88;100.00
49515;BME280;35415;47.870;16.058;2024-03-02T02:29:09;96337.56;;;4.86;100.00
49515;BME280;35415;47.870;16.058;2024-03-02T02:31:39;96425.56;;;5.55;100.00
49515;BME280;35415;47.870;16.058;2024-03-02T02:34:09;96398.69;;;5.30;100.00
49515;BME280;35415;47.870;16.058;2024-03-02T02:36:41;96448.31;;;5.68;100.00
49515;BME280;35415;47.870;16.058;2024-03-02T02:39:13;96254.59;;;4.40;100.00
49515;BME280;35415;47.870;16.058;2024-03-02T02:41:43;96311.03;;;4.69;100.00
49515;BME280;35415;47.870;16.058;2024-03-02T02:44:12;96263.19;;;4.47;100.00
49515;BME280;35415;47.870;16.058;2024-03-02T02:46:40;96275.53;;;4.59;100.00
49515;BME280;35415;47.870;16.058;2024-03-02T02:49:09;96411.88;;;5.47;100.00
49515;BME280;35415;47.870;16.058;2024-03-02T02:51:39;96287.28;;;4.63;100.00
49515;BME280;35415;47.870;16.058;2024-03-02T02:54:08;96379.66;;;5.16;100.00
49515;BME280;35415;47.870;16.058;2024-03-02T02:56:37;96284.50;;;4.52;100.00
49515;BME280;35415;47.870;16.058;2024-03-02T02:59:06;96387.94;;;5.20;100.00
49515;BME280;35415;47.870;16.058;2024-03-02T03:01:34;96378.81;;;5.10;100.00
49515;BME280;35415;47.870;16.058;2024-03-02T03:04:03;96389.50;;;5.16;100.00
49515;BME280;35415;47.870;16.058;2024-03-02T03:06:32;96294.44;;;4.57;100.00
49515;BME280;35415;47.870;16.058;2024-03-02T03:09:03;96262.22;;;4.32;100.00
49515;BME280;35415;47.870;16.058;2024-03-02T03:11:31;96344.41;;;4.77;100.00
49515;BME280;35415;47.870;16.058;2024-03-02T03:14:00;96348.94;;;4.76;100.00
49515;BME280;35415;47.870;16.058;2024-03-02T03:16:30;96333.22;;;4.75;100.00
49515;BME280;35415;47.870;16.058;2024-03-02T03:18:59;96289.81;;;4.47;100.00
49515;BME280;35415;47.870;16.058;2024-03-02T03:21:29;96391.09;;;5.11;100.00
49515;BME280;35415;47.870;16.058;2024-03-02T03:23:59;96275.09;;;4.40;100.00
49515;BME280;35415;47.870;16.058;2024-03-02T03:26:30;96392.13;;;5.10;100.00
49515;BME280;35415;47.870;16.058;2024-03-02T03:28:59;96385.47;;;5.08;100.00
49515;BME280;35415;47.870;16.058;2024-03-02T03:31:29;96256.31;;;4.25;100.00
49515;BME280;35415;47.870;16.058;2024-03-02T03:33:59;96316.00;;;4.56;100.00
49515;BME280;35415;47.870;16.058;2024-03-02T03:36:27;96313.50;;;4.49;100.00
49515;BME280;35415;47.870;16.058;2024-03-02T03:38:55;96391.75;;;4.97;100.00
49515;BME280;35415;47.870;16.058;2024-03-02T03:41:24;96336.81;;;4.64;100.00
49515;BME280;35415;47.870;16.058;2024-03-02T03:43:55;96288.34;;;4.35;100.00
49515;BME280;35415;47.870;16.058;2024-03-02T03:46:23;96302.56;;;4.45;100.00
49515;BME280;35415;47.870;16.058;2024-03-02T03:48:52;96360.97;;;4.84;100.00
49515;BME280;35415;47.870;16.058;2024-03-02T03:51:22;96276.59;;;4.31;100.00
49515;BME280;35415;47.870;16.058;2024-03-02T03:53:51;96298.03;;;4.46;100.00
49515;BME280;35415;47.870;16.058;2024-03-02T03:56:20;96268.03;;;4.23;100.00
49515;BME280;35415;47.870;16.058;2024-03-02T03:58:48;96287.63;;;4.39;100.00
49515;BME280;35415;47.870;16.058;2024-03-02T04:01:19;96392.03;;;5.00;100.00
49515;BME280;35415;47.870;16.058;2024-03-02T04:03:48;96374.31;;;4.84;100.00
49515;BME280;35415;47.870;16.058;2024-03-02T04:06:17;96472.13;;;5.42;100.00
49515;BME280;35415;47.870;16.058;2024-03-02T04:08:46;96456.06;;;5.37;100.00
49515;BME280;35415;47.870;16.058;2024-03-02T04:11:15;96292.31;;;4.32;100.00
49515;BME280;35415;47.870;16.058;2024-03-02T04:13:44;96394.13;;;4.93;100.00
49515;BME280;35415;47.870;16.058;2024-03-02T04:16:13;96281.25;;;4.18;100.00
49515;BME280;35415;47.870;16.058;2024-03-02T04:18:44;96275.94;;;4.18;100.00
49515;BME280;35415;47.870;16.058;2024-03-02T04:21:14;96339.44;;;4.59;100.00
49515;BME280;35415;47.870;16.058;2024-03-02T04:23:43;96274.03;;;4.14;100.00
49515;BME280;35415;47.870;16.058;2024-03-02T04:26:12;96332.41;;;4.47;100.00
49515;BME280;35415;47.870;16.058;2024-03-02T04:28:41;96326.53;;;4.45;100.00
49515;BME280;35415;47.870;16.058;2024-03-02T04:31:10;96317.97;;;4.38;100.00
49515;BME280;35415;47.870;16.058;2024-03-02T04:33:39;96305.94;;;4.36;100.00
49515;BME280;35415;47.870;16.058;2024-03-02T04:36:10;96357.84;;;4.60;100.00
49515;BME280;35415;47.870;16.058;2024-03-02T04:38:39;96345.44;;;4.44;100.00
49515;BME280;35415;47.870;16.058;2024-03-02T04:41:08;96289.31;;;4.23;100.00
49515;BME280;35415;47.870;16.058;2024-03-02T04:43:37;96298.66;;;4.26;100.00
49515;BME280;35415;47.870;16.058;2024-03-02T04:46:07;96348.28;;;4.64;100.00
49515;BME280;35415;47.870;16.058;2024-03-02T04:48:36;96398.91;;;4.91;100.00
49515;BME280;35415;47.870;16.058;2024-03-02T04:51:05;96298.41;;;4.28;100.00
49515;BME280;35415;47.870;16.058;2024-03-02T04:53:36;96350.34;;;4.57;100.00
49515;BME280;35415;47.870;16.058;2024-03-02T04:56:05;96486.53;;;5.41;100.00
49515;BME280;35415;47.870;16.058;2024-03-02T04:59:06;96382.50;;;4.77;100.00
49515;BME280;35415;47.870;16.058;2024-03-02T05:01:36;96297.44;;;4.12;100.00
49515;BME280;35415;47.870;16.058;2024-03-02T05:04:05;96322.06;;;4.24;100.00
49515;BME280;35415;47.870;16.058;2024-03-02T05:06:33;96415.16;;;4.90;100.00
49515;BME280;35415;47.870;16.058;2024-03-02T05:09:04;96306.78;;;4.14;100.00
49515;BME280;35415;47.870;16.058;2024-03-02T05:11:33;96473.94;;;5.05;100.00
49515;BME280;35415;47.870;16.058;2024-03-02T05:14:37;96328.38;;;4.18;100.00
49515;BME280;35415;47.870;16.058;2024-03-02T05:17:07;96433.25;;;4.88;100.00
49515;BME280;35415;47.870;16.058;2024-03-02T05:19:36;96496.81;;;5.28;100.00
49515;BME280;35415;47.870;16.058;2024-03-02T05:22:05;96490.63;;;5.22;100.00
49515;BME280;35415;47.870;16.058;2024-03-02T05:24:36;96326.28;;;4.20;100.00
49515;BME280;35415;47.870;16.058;2024-03-02T05:27:04;96441.00;;;4.89;100.00
49515;BME280;35415;47.870;16.058;2024-03-02T05:29:34;96432.91;;;4.84;100.00
49515;BME280;35415;47.870;16.058;2024-03-02T05:32:04;96431.81;;;4.80;100.00
49515;BME280;35415;47.870;16.058;2024-03-02T05:34:32;96516.56;;;5.32;100.00
49515;BME280;35415;47.870;16.058;2024-03-02T05:37:02;96367.66;;;4.33;100.00
49515;BME280;35415;47.870;16.058;2024-03-02T05:39:31;96519.16;;;5.22;100.00
49515;BME280;35415;47.870;16.058;2024-03-02T05:42:01;96326.59;;;4.02;100.00
49515;BME280;35415;47.870;16.058;2024-03-02T05:44:31;96463.38;;;4.88;100.00
49515;BME280;35415;47.870;16.058;2024-03-02T05:47:00;96345.34;;;4.12;100.00
49515;BME280;35415;47.870;16.058;2024-03-02T05:49:28;96501.81;;;4.97;100.00
49515;BME280;35415;47.870;16.058;2024-03-02T05:51:57;96409.94;;;4.51;100.00
49515;BME280;35415;47.870;16.058;2024-03-02T05:54:26;96464.63;;;4.86;100.00
49515;BME280;35415;47.870;16.058;2024-03-02T05:56:55;96382.59;;;4.34;100.00
49515;BME280;35415;47.870;16.058;2024-03-02T05:59:44;96357.47;;;4.25;100.00
49515;BME280;35415;47.870;16.058;2024-03-02T06:02:14;96335.94;;;4.04;100.00
49515;BME280;35415;47.870;16.058;2024-03-02T06:04:43;96440.31;;;4.77;100.00
49515;BME280;35415;47.870;16.058;2024-03-02T06:07:12;96459.91;;;4.88;100.00
49515;BME280;35415;47.870;16.058;2024-03-02T06:09:41;96440.81;;;4.74;100.00
49515;BME280;35415;47.870;16.058;2024-03-02T06:12:12;96503.78;;;5.07;100.00
49515;BME280;35415;47.870;16.058;2024-03-02T06:14:43;96329.69;;;3.93;100.00
49515;BME280;35415;47.870;16.058;2024-03-02T06:17:11;96442.31;;;4.65;100.00
49515;BME280;35415;47.870;16.058;2024-03-02T06:20:05;96518.19;;;5.06;100.00
49515;BME280;35415;47.870;16.058;2024-03-02T06:22:34;96328.44;;;3.79;100.00
49515;BME280;35415;47.870;16.058;2024-03-02T06:25:04;96371.00;;;4.01;100.00
49515;BME280;35415;47.870;16.058;2024-03-02T06:27:33;96369.84;;;3.92;100.00
49515;BME280;35415;47.870;16.058;2024-03-02T06:30:04;96385.75;;;3.87;100.00
49515;BME280;35415;47.870;16.058;2024-03-02T06:32:34;96558.63;;;5.03;100.00
49515;BME280;35415;47.870;16.058;2024-03-02T06:35:03;96389.22;;;3.87;100.00
49515;BME280;35415;47.870;16.058;2024-03-02T06:37:34;96442.00;;;4.17;100.00
49515;BME280;35415;47.870;16.058;2024-03-02T06:40:04;96503.81;;;4.63;100.00
49515;BME280;35415;47.870;16.058;2024-03-02T06:42:34;96503.03;;;4.63;100.00
49515;BME280;35415;47.870;16.058;2024-03-02T06:45:06;96546.31;;;4.97;100.00
49515;BME280;35415;47.870;16.058;2024-03-02T06:47:34;96507.69;;;4.72;100.00
49515;BME280;35415;47.870;16.058;2024-03-02T06:50:03;96379.50;;;3.98;100.00
49515;BME280;35415;47.870;16.058;2024-03-02T06:52:34;96485.19;;;4.63;100.00
49515;BME280;35415;47.870;16.058;2024-03-02T06:55:04;96529.22;;;4.93;100.00
49515;BME280;35415;47.870;16.058;2024-03-02T06:57:32;96397.50;;;4.13;100.00
49515;BME280;35415;47.870;16.058;2024-03-02T07:00:01;96490.63;;;4.73;100.00
49515;BME280;35415;47.870;16.058;2024-03-02T07:02:33;96400.47;;;4.16;100.00
49515;BME280;35415;47.870;16.058;2024-03-02T07:05:01;96435.66;;;4.40;100.00
49515;BME280;35415;47.870;16.058;2024-03-02T07:07:30;96391.38;;;4.12;100.00
49515;BME280;35415;47.870;16.058;2024-03-02T07:09:59;96369.97;;;4.02;100.00
49515;BME280;35415;47.870;16.058;2024-03-02T07:12:28;96474.09;;;4.71;100.00
49515;BME280;35415;47.870;16.058;2024-03-02T07:14:55;96555.09;;;5.19;100.00
49515;BME280;35415;47.870;16.058;2024-03-02T07:17:53;96459.81;;;4.56;100.00
49515;BME280;35415;47.870;16.058;2024-03-02T07:20:21;96372.41;;;4.04;100.00
49515;BME280;35415;47.870;16.058;2024-03-02T07:22:49;96441.09;;;4.50;100.00
49515;BME280;35415;47.870;16.058;2024-03-02T07:25:17;96366.28;;;4.03;100.00
49515;BME280;35415;47.870;16.058;2024-03-02T07:27:46;96515.66;;;4.94;100.00
49515;BME280;35415;47.870;16.058;2024-03-02T07:30:15;96424.63;;;4.32;100.00
49515;BME280;35415;47.870;16.058;2024-03-02T07:32:44;96571.72;;;5.26;100.00
49515;BME280;35415;47.870;16.058;2024-03-02T07:35:14;96510.53;;;4.88;100.00
49515;BME280;35415;47.870;16.058;2024-03-02T07:37:44;96417.69;;;4.31;100.00
49515;BME280;35415;47.870;16.058;2024-03-02T07:40:12;96440.78;;;4.47;100.00
49515;BME280;35415;47.870;16.058;2024-03-02T07:42:41;96435.97;;;4.44;100.00
49515;BME280;35415;47.870;16.058;2024-03-02T07:45:10;96420.41;;;4.36;100.00
49515;BME280;35415;47.870;16.058;2024-03-02T07:47:41;96520.28;;;5.04;100.00
49515;BME280;35415;47.870;16.058;2024-03-02T07:50:11;96398.31;;;4.35;100.00
49515;BME280;35415;47.870;16.058;2024-03-02T07:52:42;96433.09;;;4.50;100.00
49515;BME280;35415;47.870;16.058;2024-03-02T07:55:10;96571.69;;;5.53;100.00
49515;BME280;35415;47.870;16.058;2024-03-02T07:57:39;96419.66;;;4.62;100.00
49515;BME280;35415;47.870;16.058;2024-03-02T08:00:10;96433.00;;;4.67;100.00
49515;BME280;35415;47.870;16.058;2024-03-02T08:02:43;96391.38;;;4.56;100.00
49515;BME280;35415;47.870;16.058;2024-03-02T08:05:12;96484.63;;;5.10;100.00
49515;BME280;35415;47.870;16.058;2024-03-02T08:07:44;96504.03;;;5.32;100.00
49515;BME280;35415;47.870;16.058;2024-03-02T08:10:13;96394.91;;;4.67;100.00
49515;BME280;35415;47.870;16.058;2024-03-02T08:12:43;96580.13;;;5.94;100.00
49515;BME280;35415;47.870;16.058;2024-03-02T08:15:12;96456.78;;;5.23;100.00
49515;BME280;35415;47.870;16.058;2024-03-02T08:17:41;96414.50;;;5.04;100.00
49515;BME280;35415;47.870;16.058;2024-03-02T08:20:14;96405.22;;;5.12;100.00
49515;BME280;35415;47.870;16.058;2024-03-02T08:22:48;96432.66;;;5.39;100.00
49515;BME280;35415;47.870;16.058;2024-03-02T08:25:17;96508.56;;;5.91;100.00
49515;BME280;35415;47.870;16.058;2024-03-02T08:27:46;96389.34;;;5.27;100.00
49515;BME280;35415;47.870;16.058;2024-03-02T08:30:15;96575.16;;;6.50;100.00
49515;BME280;35415;47.870;16.058;2024-03-02T08:32:45;96510.38;;;6.22;100.00
49515;BME280;35415;47.870;16.058;2024-03-02T08:35:14;96515.25;;;6.36;100.00
49515;BME280;35415;47.870;16.058;2024-03-02T08:37:43;96484.75;;;6.26;100.00
49515;BME280;35415;47.870;16.058;2024-03-02T08:40:15;96391.84;;;5.81;100.00
49515;BME280;35415;47.870;16.058;2024-03-02T08:42:43;96497.50;;;6.61;100.00
49515;BME280;35415;47.870;16.058;2024-03-02T08:45:12;96565.59;;;7.16;100.00
49515;BME280;35415;47.870;16.058;2024-03-02T08:47:42;96508.53;;;6.85;100.00
49515;BME280;35415;47.870;16.058;2024-03-02T08:50:11;96511.81;;;7.03;100.00
49515;BME280;35415;47.870;16.058;2024-03-02T08:52:40;96422.41;;;6.63;100.00
49515;BME280;35415;47.870;16.058;2024-03-02T08:55:09;96392.72;;;6.54;100.00
49515;BME280;35415;47.870;16.058;2024-03-02T08:57:40;96435.31;;;6.97;100.00
49515;BME280;35415;47.870;16.058;2024-03-02T09:00:11;96459.44;;;7.12;100.00
49515;BME280;35415;47.870;16.058;2024-03-02T09:02:40;96512.44;;;7.71;100.00
49515;BME280;35415;47.870;16.058;2024-03-02T09:05:08;96452.78;;;7.40;100.00
49515;BME280;35415;47.870;16.058;2024-03-02T09:07:37;96409.16;;;7.34;100.00
49515;BME280;35415;47.870;16.058;2024-03-02T09:10:07;96421.47;;;7.50;100.00
49515;BME280;35415;47.870;16.058;2024-03-02T09:12:35;96385.34;;;7.28;100.00
49515;BME280;35415;47.870;16.058;2024-03-02T09:15:07;96464.00;;;7.93;100.00
49515;BME280;35415;47.870;16.058;2024-03-02T09:17:35;96472.53;;;8.15;100.00
49515;BME280;35415;47.870;16.058;2024-03-02T09:20:05;96418.19;;;7.89;100.00
49515;BME280;35415;47.870;16.058;2024-03-02T09:22:34;96467.41;;;8.39;100.00
49515;BME280;35415;47.870;16.058;2024-03-02T09:25:02;96364.41;;;7.85;100.00
49515;BME280;35415;47.870;16.058;2024-03-02T09:27:35;96381.47;;;8.10;100.00
49515;BME280;35415;47.870;16.058;2024-03-02T09:30:12;96463.00;;;8.73;100.00
49515;BME280;35415;47.870;16.058;2024-03-02T09:32:42;96526.91;;;9.16;100.00
49515;BME280;35415;47.870;16.058;2024-03-02T09:35:11;96400.34;;;8.54;100.00
49515;BME280;35415;47.870;16.058;2024-03-02T09:37:41;96371.69;;;8.50;100.00
49515;BME280;35415;47.870;16.058;2024-03-02T09:40:12;96356.97;;;8.47;100.00
49515;BME280;35415;47.870;16.058;2024-03-02T09:42:43;96399.19;;;8.76;100.00
49515;BME280;35415;47.870;16.058;2024-03-02T09:45:45;96510.94;;;9.74;100.00
49515;BME280;35415;47.870;16.058;2024-03-02T09:48:15;96360.25;;;8.83;100.00
49515;BME280;35415;47.870;16.058;2024-03-02T09:50:45;96372.44;;;9.04;100.00
49515;BME280;35415;47.870;16.058;2024-03-02T09:53:15;96405.25;;;9.30;100.00
49515;BME280;35415;47.870;16.058;2024-03-02T09:55:46;96369.63;;;9.20;100.00
49515;BME280;35415;47.870;16.058;2024-03-02T09:58:15;96372.72;;;9.37;100.00
49515;BME280;35415;47.870;16.058;2024-03-02T10:00:47;96372.41;;;9.44;100.00
49515;BME280;35415;47.870;16.058;2024-03-02T10:03:18;96396.63;;;9.68;100.00
49515;BME280;35415;47.870;16.058;2024-03-02T10:05:48;96347.06;;;9.55;100.00
49515;BME280;35415;47.870;16.058;2024-03-02T10:08:19;96404.72;;;9.91;100.00
49515;BME280;35415;47.870;16.058;2024-03-02T10:10:48;96392.03;;;9.97;100.00
49515;BME280;35415;47.870;16.058;2024-03-02T10:13:17;96385.75;;;10.07;100.00
49515;BME280;35415;47.870;16.058;2024-03-02T10:15:48;96507.44;;;10.89;100.00
49515;BME280;35415;47.870;16.058;2024-03-02T10:18:26;96508.63;;;11.02;100.00
49515;BME280;35415;47.870;16.058;2024-03-02T10:21:13;96505.56;;;11.08;100.00
49515;BME280;35415;47.870;16.058;2024-03-02T10:23:41;96365.72;;;10.23;100.00
49515;BME280;35415;47.870;16.058;2024-03-02T10:26:17;96376.78;;;10.40;100.00
49515;BME280;35415;47.870;16.058;2024-03-02T10:28:48;96391.66;;;10.57;100.00
49515;BME280;35415;47.870;16.058;2024-03-02T10:31:20;96462.00;;;11.06;100.00
49515;BME280;35415;47.870;16.058;2024-03-02T10:33:53;96456.88;;;11.10;100.00
49515;BME280;35415;47.870;16.058;2024-03-02T10:36:23;96437.78;;;11.06;100.00
49515;BME280;35415;47.870;16.058;2024-03-02T10:38:53;96449.66;;;11.24;100.00
49515;BME280;35415;47.870;16.058;2024-03-02T10:41:24;96400.19;;;11.01;100.00
49515;BME280;35415;47.870;16.058;2024-03-02T10:43:55;96441.81;;;11.28;100.00
49515;BME280;35415;47.870;16.058;2024-03-02T10:46:30;96373.16;;;10.93;100.00
49515;BME280;35415;47.870;16.058;2024-03-02T10:49:03;96345.97;;;10.75;100.00
49515;BME280;35415;47.870;16.058;2024-03-02T10:51:33;96427.47;;;11.32;100.00
49515;BME280;35415;47.870;16.058;2024-03-02T10:54:03;96513.13;;;11.87;100.00
49515;BME280;35415;47.870;16.058;2024-03-02T10:56:33;96495.16;;;11.82;99.88
49515;BME280;35415;47.870;16.058;2024-03-02T10:59:06;96447.25;;;11.60;100.00
49515;BME280;35415;47.870;16.058;2024-03-02T11:01:43;96362.69;;;11.10;100.00
49515;BME280;35415;47.870;16.058;2024-03-02T11:04:14;96490.81;;;12.00;100.00
49515;BME280;35415;47.870;16.058;2024-03-02T11:06:48;96340.41;;;11.04;100.00
49515;BME280;35415;47.870;16.058;2024-03-02T11:09:22;96349.13;;;11.15;100.00
49515;BME280;35415;47.870;16.058;2024-03-02T11:11:59;96417.88;;;11.59;100.00
49515;BME280;35415;47.870;16.058;2024-03-02T11:14:31;96441.84;;;11.79;100.00
49515;BME280;35415;47.870;16.058;2024-03-02T11:17:04;96404.81;;;11.52;100.00
49515;BME280;35415;47.870;16.058;2024-03-02T11:19:33;96501.56;;;12.32;100.00
49515;BME280;35415;47.870;16.058;2024-03-02T11:22:03;96499.78;;;12.28;99.28
49515;BME280;35415;47.870;16.058;2024-03-02T11:24:34;96374.28;;;11.43;98.11
49515;BME280;35415;47.870;16.058;2024-03-02T11:27:04;96339.94;;;11.35;98.03
49515;BME280;35415;47.870;16.058;2024-03-02T11:29:45;96442.50;;;12.03;99.69
49515;BME280;35415;47.870;16.058;2024-03-02T11:32:17;96361.06;;;11.60;97.99
49515;BME280;35415;47.870;16.058;2024-03-02T11:34:47;96489.09;;;12.50;100.00
49515;BME280;35415;47.870;16.058;2024-03-02T11:37:17;96337.78;;;11.51;99.74
49515;BME280;35415;47.870;16.058;2024-03-02T11:39:49;96388.97;;;11.83;96.57
49515;BME280;35415;47.870;16.058;2024-03-02T11:42:18;96440.31;;;12.19;99.00
49515;BME280;35415;47.870;16.058;2024-03-02T11:44:48;96367.47;;;11.78;97.14
49515;BME280;35415;47.870;16.058;2024-03-02T11:47:19;96491.91;;;12.59;96.56
49515;BME280;35415;47.870;16.058;2024-03-02T11:49:50;96359.47;;;11.73;97.08
49515;BME280;35415;47.870;16.058;2024-03-02T11:52:19;96502.41;;;12.74;100.00
49515;BME280;35415;47.870;16.058;2024-03-02T11:54:48;96342.72;;;11.76;98.04
49515;BME280;35415;47.870;16.058;2024-03-02T11:57:19;96491.53;;;12.65;94.45
49515;BME280;35415;47.870;16.058;2024-03-02T11:59:50;96439.25;;;12.34;95.22
49515;BME280;35415;47.870;16.058;2024-03-02T12:02:21;96380.09;;;11.96;95.97
49515;BME280;35415;47.870;16.058;2024-03-02T12:04:50;96483.72;;;12.64;97.58
49515;BME280;35415;47.870;16.058;2024-03-02T12:07:23;96504.00;;;12.75;96.67
49515;BME280;35415;47.870;16.058;2024-03-02T12:10:01;96496.69;;;12.76;96.90
49515;BME280;35415;47.870;16.058;2024-03-02T12:12:31;96341.63;;;11.77;95.32
49515;BME280;35415;47.870;16.058;2024-03-02T12:15:00;96498.81;;;12.79;95.45
49515;BME280;35415;47.870;16.058;2024-03-02T12:17:31;96355.94;;;11.91;94.88
49515;BME280;35415;47.870;16.058;2024-03-02T12:19:59;96492.34;;;12.80;95.59
49515;BME280;35415;47.870;16.058;2024-03-02T12:22:29;96345.25;;;11.86;95.47
49515;BME280;35415;47.870;16.058;2024-03-02T12:24:58;96336.47;;;11.81;94.69
49515;BME280;35415;47.870;16.058;2024-03-02T12:27:27;96424.06;;;12.38;95.18
49515;BME280;35415;47.870;16.058;2024-03-02T12:29:56;96494.41;;;12.83;95.91
49515;BME280;35415;47.870;16.058;2024-03-02T12:32:25;96476.22;;;12.75;94.90
49515;BME280;35415;47.870;16.058;2024-03-02T12:34:57;96331.38;;;11.79;94.85
49515;BME280;35415;47.870;16.058;2024-03-02T12:37:27;96486.63;;;12.81;93.94
49515;BME280;35415;47.870;16.058;2024-03-02T12:39:56;96392.28;;;12.21;94.41
49515;BME280;35415;47.870;16.058;2024-03-02T12:42:26;96472.34;;;12.67;94.47
49515;BME280;35415;47.870;16.058;2024-03-02T12:44:55;96358.56;;;11.96;94.77
49515;BME280;35415;47.870;16.058;2024-03-02T12:47:24;96384.72;;;12.10;94.64
49515;BME280;35415;47.870;16.058;2024-03-02T12:49:53;96431.84;;;12.40;94.98
49515;BME280;35415;47.870;16.058;2024-03-02T12:52:25;96331.44;;;11.74;94.62
49515;BME280;35415;47.870;16.058;2024-03-02T12:54:54;96333.56;;;11.77;95.57
49515;BME280;35415;47.870;16.058;2024-03-02T12:57:29;96354.25;;;11.82;96.59
49515;BME280;35415;47.870;16.058;2024-03-02T12:59:59;96322.16;;;11.66;97.57
49515;BME280;35415;47.870;16.058;2024-03-02T13:02:30;96455.94;;;12.50;97.32
49515;BME280;35415;47.870;16.058;2024-03-02T13:04:59;96476.72;;;12.63;96.77
49515;BME280;35415;47.870;16.058;2024-03-02T13:07:29;96410.66;;;12.19;97.52